This is the latest recevied weather packets stored in our database for station/object KB1FFS. If no packets are shown the sender has not sent any weather packets the latest 1 day(s).
| Time | Temp. | Humidity | Pressure | Rain* | Wind** | Luminosity | Snow |
|---|---|---|---|---|---|---|---|
| 1778029755 | 22.22° C | 64% | 1007.7 hPa | 0 mm | 0.89 m/s, 156° | 1 W/m² | - |
| 1778029454 | 22.22° C | 64% | 1007.2 hPa | 0 mm | 0.45 m/s, 138° | 2 W/m² | - |
| 1778029149 | 22.78° C | 63% | 1007.4 hPa | 0 mm | 0.89 m/s, 161° | 4 W/m² | - |
| 1778028848 | 22.78° C | 64% | 1007.2 hPa | 0 mm | 0 m/s | 6 W/m² | - |
| 1778028542 | 22.78° C | 64% | 1007.2 hPa | 0 mm | 0.89 m/s, 160° | 10 W/m² | - |
| 1778028241 | 22.78° C | 63% | 1007.4 hPa | 0 mm | 0.89 m/s, 139° | 11 W/m² | - |
| 1778027937 | 22.78° C | 63% | 1007.1 hPa | 0 mm | 0.89 m/s, 157° | 10 W/m² | - |
| 1778027633 | 23.33° C | 63% | 1006.6 hPa | 0 mm | 0 m/s | 16 W/m² | - |
| 1778027330 | 23.33° C | 63% | 1006.3 hPa | 0 mm | 1.34 m/s, 140° | 9 W/m² | - |
| 1778027026 | 23.89° C | 62% | 1006.7 hPa | 0 mm | 0 m/s | 10 W/m² | - |
| 1778026721 | 23.89° C | 62% | 1006.9 hPa | 0 mm | 0.89 m/s, 163° | 10 W/m² | - |
| 1778026419 | 24.44° C | 61% | 1006.6 hPa | 0 mm | 0.89 m/s, 111° | 16 W/m² | - |
| 1778026116 | 24.44° C | 61% | 1006.6 hPa | 0 mm | 0.89 m/s, 326° | 21 W/m² | - |
| 1778025814 | 25° C | 60% | 1006.5 hPa | 0 mm | 0 m/s | 27 W/m² | - |
| 1778025510 | 25° C | 59% | 1006.5 hPa | 0 mm | 0 m/s | 33 W/m² | - |
| 1778025208 | 25.56° C | 59% | 1006.6 hPa | 0 mm | 0.89 m/s, 154° | 47 W/m² | - |
| 1778024904 | 25.56° C | 59% | 1006.3 hPa | 0 mm | 0.89 m/s, 74° | 61 W/m² | - |
| 1778024602 | 25.56° C | 59% | 1006.5 hPa | 0 mm | 0.45 m/s, 147° | 68 W/m² | - |
| 1778024299 | 26.11° C | 58% | 1006.3 hPa | 0 mm | 0.89 m/s, 149° | 70 W/m² | - |
| 1778023997 | 26.11° C | 56% | 1006.2 hPa | 0 mm | 0 m/s | 83 W/m² | - |
| 1778023694 | 26.67° C | 56% | 1006.1 hPa | 0 mm | 0 m/s | 57 W/m² | - |
| 1778023391 | 26.67° C | 55% | 1006.1 hPa | 0 mm | 0.45 m/s, 329° | 45 W/m² | - |
| 1778023088 | 26.67° C | 55% | 1006.4 hPa | 0 mm | 0 m/s | 50 W/m² | - |
| 1778022786 | 27.22° C | 56% | 1006.3 hPa | 0 mm | 0 m/s | 79 W/m² | - |
| 1778022484 | 27.22° C | 54% | 1005.8 hPa | 0 mm | 0.45 m/s, 240° | 69 W/m² | - |
* Rain latest hour (hover to see other rain measurements)
** Current wind speed in m/s (hover to see current wind gust speed)